createdAt,value
2023-05-26T00:00:04.327Z,97749.59
2023-05-26T00:03:08.557Z,97754.00
2023-05-26T00:06:11.254Z,97748.94
2023-05-26T00:09:13.700Z,97754.88
2023-05-26T00:12:15.282Z,97750.78
2023-05-26T00:15:16.791Z,97756.09
2023-05-26T00:18:18.617Z,97756.72
2023-05-26T00:21:20.236Z,97752.63
2023-05-26T00:24:21.771Z,97757.31
2023-05-26T00:27:23.290Z,97756.34
2023-05-26T00:30:25.010Z,97749.28
2023-05-26T00:33:26.559Z,97751.09
2023-05-26T00:36:28.125Z,97752.47
2023-05-26T00:39:31.296Z,97753.97
2023-05-26T00:42:32.822Z,97754.81
2023-05-26T00:45:37.613Z,97753.13
2023-05-26T00:48:39.227Z,97748.53
2023-05-26T00:51:44.375Z,97743.06
2023-05-26T00:54:45.905Z,97739.63
2023-05-26T00:57:48.279Z,97738.81
2023-05-26T01:00:49.928Z,97732.66
2023-05-26T01:03:52.626Z,97735.38
2023-05-26T01:06:54.249Z,97738.84
2023-05-26T01:09:55.772Z,97740.97
2023-05-26T01:13:09.712Z,97734.34
2023-05-26T01:16:15.048Z,97732.22
2023-05-26T01:19:42.082Z,97728.94
2023-05-26T01:22:52.385Z,97726.66
2023-05-26T01:26:02.635Z,97742.38
2023-05-26T01:29:19.146Z,97745.53
2023-05-26T01:32:21.047Z,97742.72
2023-05-26T01:35:23.993Z,97745.25
2023-05-26T01:38:25.662Z,97742.94
2023-05-26T01:41:41.048Z,97732.88
2023-05-26T01:45:07.569Z,97737.50
2023-05-26T01:48:10.434Z,97738.00
2023-05-26T01:51:14.485Z,97732.56
2023-05-26T01:54:19.506Z,97738.16
2023-05-26T01:57:21.670Z,97739.03
2023-05-26T02:00:27.574Z,97743.31
2023-05-26T02:03:29.197Z,97747.63
2023-05-26T02:06:30.932Z,97741.81
2023-05-26T02:09:33.093Z,97748.59
2023-05-26T02:12:34.602Z,97749.09
2023-05-26T02:15:36.392Z,97747.09
2023-05-26T02:18:38.061Z,97745.59
2023-05-26T02:21:39.924Z,97740.50
2023-05-26T02:24:41.406Z,97742.13
2023-05-26T02:27:43.096Z,97741.31
2023-05-26T02:30:45.098Z,97733.41
2023-05-26T02:33:46.589Z,97738.19
2023-05-26T02:36:48.123Z,97739.53
2023-05-26T02:39:49.607Z,97746.81
2023-05-26T02:42:51.067Z,97738.53
2023-05-26T02:45:53.518Z,97724.31
2023-05-26T02:48:55.086Z,97727.63
2023-05-26T02:51:56.642Z,97732.25
2023-05-26T02:54:58.201Z,97734.25
2023-05-26T02:58:01.766Z,97735.22
2023-05-26T03:01:04.003Z,97739.69
2023-05-26T03:04:05.630Z,97738.88
2023-05-26T03:07:09.081Z,97733.25
2023-05-26T03:10:12.015Z,97739.53
2023-05-26T03:13:13.780Z,97733.41
2023-05-26T03:16:15.421Z,97738.03
2023-05-26T03:19:17.126Z,97730.91
2023-05-26T03:22:41.578Z,97727.78
2023-05-26T03:25:40.932Z,97725.97
2023-05-26T03:28:42.490Z,97719.19
2023-05-26T03:31:44.835Z,97723.50
2023-05-26T03:34:46.904Z,97716.53
2023-05-26T03:37:50.113Z,97719.19
2023-05-26T03:40:52.279Z,97722.66
2023-05-26T03:43:54.624Z,97720.19
2023-05-26T03:46:56.738Z,97725.94
2023-05-26T03:49:59.905Z,97731.25
2023-05-26T03:53:02.217Z,97724.81
2023-05-26T03:56:04.359Z,97727.28
2023-05-26T03:59:05.936Z,97730.63
2023-05-26T04:02:08.927Z,97722.50
2023-05-26T04:05:10.865Z,97730.31
2023-05-26T04:08:12.464Z,97738.53
2023-05-26T04:11:14.693Z,97740.03
2023-05-26T04:14:16.362Z,97739.53
2023-05-26T04:17:18.038Z,97736.38
2023-05-26T04:20:20.888Z,97738.38
2023-05-26T04:23:22.656Z,97735.88
2023-05-26T04:26:25.698Z,97732.75
2023-05-26T04:29:45.938Z,97742.16
2023-05-26T04:33:16.809Z,97745.59
2023-05-26T04:36:42.274Z,97737.44
2023-05-26T04:39:43.885Z,97744.69
2023-05-26T04:42:45.543Z,97741.78
2023-05-26T04:45:47.342Z,97733.78
2023-05-26T04:48:49.337Z,97741.00
2023-05-26T04:51:55.361Z,97744.44
2023-05-26T04:54:57.588Z,97749.19
2023-05-26T04:57:59.283Z,97745.66
2023-05-26T05:01:04.463Z,97747.88
2023-05-26T05:04:23.389Z,97749.13
2023-05-26T05:07:31.672Z,97753.00
2023-05-26T05:10:44.040Z,97763.00
2023-05-26T05:13:50.896Z,97764.59
2023-05-26T05:16:53.632Z,97763.72
2023-05-26T05:20:10.021Z,97760.97
2023-05-26T05:23:19.620Z,97769.03
2023-05-26T05:26:23.168Z,97762.72
2023-05-26T05:29:25.683Z,97765.94
2023-05-26T05:35:55.567Z,97780.97
2023-05-26T05:38:58.322Z,97776.03
2023-05-26T05:42:00.290Z,97784.25
2023-05-26T05:45:03.452Z,97782.06
2023-05-26T05:48:25.424Z,97784.72
2023-05-26T05:51:33.588Z,97785.13
2023-05-26T05:54:35.240Z,97790.53
2023-05-26T05:57:37.190Z,97777.06
2023-05-26T06:00:38.713Z,97781.31
2023-05-26T06:03:40.374Z,97785.50
2023-05-26T06:06:42.239Z,97788.75
2023-05-26T06:09:45.099Z,97784.25
2023-05-26T06:12:46.695Z,97791.69
2023-05-26T06:15:49.195Z,97790.50
2023-05-26T06:18:51.320Z,97790.09
2023-05-26T06:22:02.143Z,97799.66
2023-05-26T06:25:05.140Z,97794.59
2023-05-26T06:28:06.980Z,97794.13
2023-05-26T06:31:14.030Z,97796.31
2023-05-26T06:34:26.281Z,97804.94
2023-05-26T06:37:27.952Z,97798.75
2023-05-26T06:40:29.544Z,97797.13
2023-05-26T06:43:31.161Z,97791.31
2023-05-26T06:46:33.375Z,97792.31
2023-05-26T06:49:35.107Z,97792.03
2023-05-26T06:52:42.850Z,97798.97
2023-05-26T06:55:44.525Z,97803.53
2023-05-26T06:58:46.049Z,97803.16
2023-05-26T07:01:48.472Z,97800.31
2023-05-26T07:04:50.829Z,97801.09
2023-05-26T07:07:53.981Z,97805.81
2023-05-26T07:10:55.774Z,97811.06
2023-05-26T07:13:57.425Z,97804.38
2023-05-26T07:17:01.644Z,97812.66
2023-05-26T07:20:11.181Z,97813.44
2023-05-26T07:23:12.943Z,97814.50
2023-05-26T07:26:17.187Z,97815.75
2023-05-26T07:29:19.387Z,97814.63
2023-05-26T07:32:29.974Z,97803.22
2023-05-26T07:35:33.495Z,97807.97
2023-05-26T07:38:35.805Z,97817.66
2023-05-26T07:41:38.196Z,97810.94
2023-05-26T07:44:39.681Z,97816.78
2023-05-26T07:47:41.899Z,97817.19
2023-05-26T07:50:43.731Z,97807.16
2023-05-26T07:53:48.326Z,97804.09
2023-05-26T07:56:52.755Z,97806.81
2023-05-26T07:59:54.384Z,97817.28
2023-05-26T08:02:56.717Z,97816.88
2023-05-26T08:06:02.787Z,97813.03
2023-05-26T08:09:06.836Z,97816.13
2023-05-26T08:12:08.714Z,97810.38
2023-05-26T08:15:16.514Z,97817.56
2023-05-26T08:18:20.388Z,97815.28
2023-05-26T08:21:21.974Z,97817.59
2023-05-26T08:24:25.922Z,97815.13
2023-05-26T08:27:27.519Z,97815.94
2023-05-26T08:30:28.995Z,97810.34
2023-05-26T08:33:30.618Z,97802.53
2023-05-26T08:36:32.245Z,97795.94
2023-05-26T08:39:33.742Z,97797.75
2023-05-26T08:42:44.179Z,97797.34
2023-05-26T08:45:46.432Z,97797.94
2023-05-26T08:48:49.520Z,97792.31
2023-05-26T08:52:15.286Z,97793.53
2023-05-26T08:55:17.555Z,97789.78
2023-05-26T08:58:20.734Z,97785.28
2023-05-26T09:01:22.422Z,97780.94
2023-05-26T09:04:24.379Z,97786.75
2023-05-26T09:07:28.058Z,97795.75
2023-05-26T09:10:33.247Z,97790.75
2023-05-26T09:13:40.929Z,97788.41
2023-05-26T09:16:42.538Z,97793.72
2023-05-26T09:19:44.224Z,97794.94
2023-05-26T09:22:46.711Z,97794.22
2023-05-26T09:25:51.441Z,97799.09
2023-05-26T09:28:53.551Z,97806.09
2023-05-26T09:31:55.219Z,97798.22
2023-05-26T09:35:04.311Z,97804.72
2023-05-26T09:38:10.643Z,97805.84
2023-05-26T09:41:12.269Z,97798.03
2023-05-26T09:44:18.541Z,97806.97
2023-05-26T09:47:21.795Z,97811.53
2023-05-26T09:50:24.000Z,97803.63
2023-05-26T09:53:25.809Z,97808.63
2023-05-26T09:56:30.592Z,97799.06
2023-05-26T09:59:39.764Z,97790.69
2023-05-26T10:02:42.629Z,97807.50
2023-05-26T10:05:48.050Z,97804.84
2023-05-26T10:08:53.610Z,97799.03
2023-05-26T10:11:59.192Z,97793.31
2023-05-26T10:15:01.765Z,97795.88
2023-05-26T10:18:03.764Z,97782.19
2023-05-26T10:21:10.223Z,97790.84
2023-05-26T10:24:24.299Z,97786.84
2023-05-26T10:27:37.618Z,97790.88
2023-05-26T10:30:42.032Z,97779.88
2023-05-26T10:33:45.459Z,97789.84
2023-05-26T10:37:01.155Z,97781.44
2023-05-26T10:40:03.298Z,97773.25
2023-05-26T10:43:20.107Z,97776.25
